sensor_id;sensor_type;location;lat;lon;timestamp;temperature;humidity
14283;DHT22;7225;59.282;18.344;2023-03-18T00:00:27;4.90;99.90
14283;DHT22;7225;59.282;18.344;2023-03-18T00:02:54;4.90;99.90
14283;DHT22;7225;59.282;18.344;2023-03-18T00:05:21;4.90;99.90
14283;DHT22;7225;59.282;18.344;2023-03-18T00:07:48;4.90;99.90
14283;DHT22;7225;59.282;18.344;2023-03-18T00:10:16;4.90;99.90
14283;DHT22;7225;59.282;18.344;2023-03-18T00:12:44;5.00;99.90
14283;DHT22;7225;59.282;18.344;2023-03-18T00:15:13;5.00;99.90
14283;DHT22;7225;59.282;18.344;2023-03-18T00:17:42;5.00;99.90
14283;DHT22;7225;59.282;18.344;2023-03-18T00:20:10;5.00;99.90
14283;DHT22;7225;59.282;18.344;2023-03-18T00:22:40;5.00;99.90
14283;DHT22;7225;59.282;18.344;2023-03-18T00:25:09;5.00;99.90
14283;DHT22;7225;59.282;18.344;2023-03-18T00:27:37;5.00;99.90
14283;DHT22;7225;59.282;18.344;2023-03-18T00:30:06;5.00;99.90
14283;DHT22;7225;59.282;18.344;2023-03-18T00:32:33;5.00;99.90
14283;DHT22;7225;59.282;18.344;2023-03-18T00:35:01;5.00;99.90
14283;DHT22;7225;59.282;18.344;2023-03-18T00:37:30;5.00;99.90
14283;DHT22;7225;59.282;18.344;2023-03-18T00:39:58;5.00;99.90
14283;DHT22;7225;59.282;18.344;2023-03-18T00:42:31;5.10;99.90
14283;DHT22;7225;59.282;18.344;2023-03-18T00:45:07;5.10;99.90
14283;DHT22;7225;59.282;18.344;2023-03-18T00:47:34;5.10;99.90
14283;DHT22;7225;59.282;18.344;2023-03-18T00:50:01;5.10;99.90
14283;DHT22;7225;59.282;18.344;2023-03-18T00:52:29;5.10;99.90
14283;DHT22;7225;59.282;18.344;2023-03-18T00:54:58;5.20;99.90
14283;DHT22;7225;59.282;18.344;2023-03-18T00:57:27;5.20;99.90
14283;DHT22;7225;59.282;18.344;2023-03-18T00:59:54;5.20;99.90
14283;DHT22;7225;59.282;18.344;2023-03-18T01:02:23;5.20;99.90
14283;DHT22;7225;59.282;18.344;2023-03-18T01:04:50;5.20;99.90
14283;DHT22;7225;59.282;18.344;2023-03-18T01:07:17;5.20;99.90
14283;DHT22;7225;59.282;18.344;2023-03-18T01:09:45;5.30;99.90
14283;DHT22;7225;59.282;18.344;2023-03-18T01:12:12;5.20;99.90
14283;DHT22;7225;59.282;18.344;2023-03-18T01:14:39;5.30;99.90
14283;DHT22;7225;59.282;18.344;2023-03-18T01:17:07;5.20;99.90
14283;DHT22;7225;59.282;18.344;2023-03-18T01:19:35;5.20;99.90
14283;DHT22;7225;59.282;18.344;2023-03-18T01:22:03;5.20;99.90
14283;DHT22;7225;59.282;18.344;2023-03-18T01:24:30;5.20;99.90
14283;DHT22;7225;59.282;18.344;2023-03-18T01:26:57;5.20;99.90
14283;DHT22;7225;59.282;18.344;2023-03-18T01:29:25;5.20;99.90
14283;DHT22;7225;59.282;18.344;2023-03-18T01:31:53;5.20;99.90
14283;DHT22;7225;59.282;18.344;2023-03-18T01:34:20;5.20;99.90
14283;DHT22;7225;59.282;18.344;2023-03-18T01:36:47;5.20;99.90
14283;DHT22;7225;59.282;18.344;2023-03-18T01:39:15;5.20;99.90
14283;DHT22;7225;59.282;18.344;2023-03-18T01:41:44;5.20;99.90
14283;DHT22;7225;59.282;18.344;2023-03-18T01:44:18;5.20;99.90
14283;DHT22;7225;59.282;18.344;2023-03-18T01:46:47;5.20;99.90
14283;DHT22;7225;59.282;18.344;2023-03-18T01:52:19;5.10;99.90
14283;DHT22;7225;59.282;18.344;2023-03-18T01:54:54;5.10;99.90
14283;DHT22;7225;59.282;18.344;2023-03-18T01:57:22;5.10;99.90
14283;DHT22;7225;59.282;18.344;2023-03-18T01:59:51;5.10;99.90
14283;DHT22;7225;59.282;18.344;2023-03-18T02:02:19;5.10;99.90
14283;DHT22;7225;59.282;18.344;2023-03-18T02:04:54;5.10;99.90
14283;DHT22;7225;59.282;18.344;2023-03-18T02:07:30;5.10;99.90
14283;DHT22;7225;59.282;18.344;2023-03-18T02:10:05;5.10;99.90
14283;DHT22;7225;59.282;18.344;2023-03-18T02:12:34;5.10;99.90
14283;DHT22;7225;59.282;18.344;2023-03-18T02:15:09;5.10;99.90
14283;DHT22;7225;59.282;18.344;2023-03-18T02:17:41;5.10;99.90
14283;DHT22;7225;59.282;18.344;2023-03-18T02:22:55;5.10;99.90
14283;DHT22;7225;59.282;18.344;2023-03-18T02:28:23;5.00;99.90
14283;DHT22;7225;59.282;18.344;2023-03-18T02:30:56;5.00;99.90
14283;DHT22;7225;59.282;18.344;2023-03-18T02:33:27;5.00;99.90
14283;DHT22;7225;59.282;18.344;2023-03-18T02:36:00;5.00;99.90
14283;DHT22;7225;59.282;18.344;2023-03-18T02:38:28;4.90;99.90
14283;DHT22;7225;59.282;18.344;2023-03-18T02:40:55;4.90;99.90
14283;DHT22;7225;59.282;18.344;2023-03-18T02:43:27;4.90;99.90
14283;DHT22;7225;59.282;18.344;2023-03-18T02:48:43;4.90;99.90
14283;DHT22;7225;59.282;18.344;2023-03-18T02:51:11;4.90;99.90
14283;DHT22;7225;59.282;18.344;2023-03-18T02:53:40;4.80;99.90
14283;DHT22;7225;59.282;18.344;2023-03-18T02:56:08;4.80;99.90
14283;DHT22;7225;59.282;18.344;2023-03-18T02:58:36;4.80;99.90
14283;DHT22;7225;59.282;18.344;2023-03-18T03:01:04;4.80;99.90
14283;DHT22;7225;59.282;18.344;2023-03-18T03:03:33;4.80;99.90
14283;DHT22;7225;59.282;18.344;2023-03-18T03:06:00;4.70;99.90
14283;DHT22;7225;59.282;18.344;2023-03-18T03:08:28;4.70;99.90
14283;DHT22;7225;59.282;18.344;2023-03-18T03:10:55;4.70;99.90
14283;DHT22;7225;59.282;18.344;2023-03-18T03:13:23;4.70;99.90
14283;DHT22;7225;59.282;18.344;2023-03-18T03:15:50;4.60;99.90
14283;DHT22;7225;59.282;18.344;2023-03-18T03:18:17;4.60;99.90
14283;DHT22;7225;59.282;18.344;2023-03-18T03:20:44;4.60;99.90
14283;DHT22;7225;59.282;18.344;2023-03-18T03:23:14;4.60;99.90
14283;DHT22;7225;59.282;18.344;2023-03-18T03:25:41;4.60;99.90
14283;DHT22;7225;59.282;18.344;2023-03-18T03:28:12;4.50;99.90
14283;DHT22;7225;59.282;18.344;2023-03-18T03:30:40;4.50;99.90
14283;DHT22;7225;59.282;18.344;2023-03-18T03:33:08;4.50;99.90
14283;DHT22;7225;59.282;18.344;2023-03-18T03:35:36;4.50;99.90
14283;DHT22;7225;59.282;18.344;2023-03-18T03:38:04;4.50;99.90
14283;DHT22;7225;59.282;18.344;2023-03-18T03:40:32;4.50;99.90
14283;DHT22;7225;59.282;18.344;2023-03-18T03:42:59;4.40;99.90
14283;DHT22;7225;59.282;18.344;2023-03-18T03:45:27;4.40;99.90
14283;DHT22;7225;59.282;18.344;2023-03-18T03:47:54;4.40;99.90
14283;DHT22;7225;59.282;18.344;2023-03-18T03:50:21;4.40;99.90
14283;DHT22;7225;59.282;18.344;2023-03-18T03:52:49;4.40;99.90
14283;DHT22;7225;59.282;18.344;2023-03-18T03:55:18;4.30;99.90
14283;DHT22;7225;59.282;18.344;2023-03-18T03:57:46;4.40;99.90
14283;DHT22;7225;59.282;18.344;2023-03-18T04:00:15;4.40;99.90
14283;DHT22;7225;59.282;18.344;2023-03-18T04:02:45;4.40;99.90
14283;DHT22;7225;59.282;18.344;2023-03-18T04:05:15;4.40;99.90
14283;DHT22;7225;59.282;18.344;2023-03-18T04:07:43;4.40;99.90
14283;DHT22;7225;59.282;18.344;2023-03-18T04:10:13;4.40;99.90
14283;DHT22;7225;59.282;18.344;2023-03-18T04:12:42;4.40;99.90
14283;DHT22;7225;59.282;18.344;2023-03-18T04:15:13;4.40;99.90
14283;DHT22;7225;59.282;18.344;2023-03-18T04:17:40;4.40;99.90
14283;DHT22;7225;59.282;18.344;2023-03-18T04:20:09;4.40;99.90
14283;DHT22;7225;59.282;18.344;2023-03-18T04:22:36;4.40;99.90
14283;DHT22;7225;59.282;18.344;2023-03-18T04:25:04;4.40;99.90
14283;DHT22;7225;59.282;18.344;2023-03-18T04:27:32;4.40;99.90
14283;DHT22;7225;59.282;18.344;2023-03-18T04:29:59;4.40;99.90
14283;DHT22;7225;59.282;18.344;2023-03-18T04:32:26;4.30;99.90
14283;DHT22;7225;59.282;18.344;2023-03-18T04:34:53;4.30;99.90
14283;DHT22;7225;59.282;18.344;2023-03-18T04:37:20;4.30;99.90
14283;DHT22;7225;59.282;18.344;2023-03-18T04:39:47;4.30;99.90
14283;DHT22;7225;59.282;18.344;2023-03-18T04:42:15;4.30;99.90
14283;DHT22;7225;59.282;18.344;2023-03-18T04:44:43;4.30;99.90
14283;DHT22;7225;59.282;18.344;2023-03-18T04:47:11;4.30;99.90
14283;DHT22;7225;59.282;18.344;2023-03-18T04:49:39;4.30;99.90
14283;DHT22;7225;59.282;18.344;2023-03-18T04:52:06;4.30;99.90
14283;DHT22;7225;59.282;18.344;2023-03-18T04:54:33;4.30;99.90
14283;DHT22;7225;59.282;18.344;2023-03-18T04:57:03;4.30;99.90
14283;DHT22;7225;59.282;18.344;2023-03-18T04:59:31;4.30;99.90
14283;DHT22;7225;59.282;18.344;2023-03-18T05:01:58;4.30;99.90
14283;DHT22;7225;59.282;18.344;2023-03-18T05:04:25;4.30;99.90
14283;DHT22;7225;59.282;18.344;2023-03-18T05:06:53;4.30;99.90
14283;DHT22;7225;59.282;18.344;2023-03-18T05:09:20;4.30;99.90
14283;DHT22;7225;59.282;18.344;2023-03-18T05:11:47;4.30;99.90
14283;DHT22;7225;59.282;18.344;2023-03-18T05:14:15;4.30;99.90
14283;DHT22;7225;59.282;18.344;2023-03-18T05:16:42;4.20;99.90
14283;DHT22;7225;59.282;18.344;2023-03-18T05:19:09;4.30;99.90
14283;DHT22;7225;59.282;18.344;2023-03-18T05:21:36;4.30;99.90
14283;DHT22;7225;59.282;18.344;2023-03-18T05:24:04;4.20;99.90
14283;DHT22;7225;59.282;18.344;2023-03-18T05:26:31;4.20;99.90
14283;DHT22;7225;59.282;18.344;2023-03-18T05:28:58;4.20;99.90
14283;DHT22;7225;59.282;18.344;2023-03-18T05:31:25;4.20;99.90
14283;DHT22;7225;59.282;18.344;2023-03-18T05:33:52;4.20;99.90
14283;DHT22;7225;59.282;18.344;2023-03-18T05:36:19;4.20;99.90
14283;DHT22;7225;59.282;18.344;2023-03-18T05:38:46;4.20;99.90
14283;DHT22;7225;59.282;18.344;2023-03-18T05:41:13;4.20;99.90
14283;DHT22;7225;59.282;18.344;2023-03-18T05:43:40;4.20;99.90
14283;DHT22;7225;59.282;18.344;2023-03-18T05:46:08;4.20;99.90
14283;DHT22;7225;59.282;18.344;2023-03-18T05:48:35;4.20;99.90
14283;DHT22;7225;59.282;18.344;2023-03-18T05:51:02;4.20;99.90
14283;DHT22;7225;59.282;18.344;2023-03-18T05:53:30;4.20;99.90
14283;DHT22;7225;59.282;18.344;2023-03-18T05:55:58;4.20;99.90
14283;DHT22;7225;59.282;18.344;2023-03-18T05:58:25;4.20;99.90
14283;DHT22;7225;59.282;18.344;2023-03-18T06:00:56;4.20;99.90
14283;DHT22;7225;59.282;18.344;2023-03-18T06:03:26;4.20;99.90
14283;DHT22;7225;59.282;18.344;2023-03-18T06:05:53;4.20;99.90
14283;DHT22;7225;59.282;18.344;2023-03-18T06:08:20;4.20;99.90
14283;DHT22;7225;59.282;18.344;2023-03-18T06:10:48;4.20;99.90
14283;DHT22;7225;59.282;18.344;2023-03-18T06:13:15;4.20;99.90
14283;DHT22;7225;59.282;18.344;2023-03-18T06:15:42;4.20;99.90
14283;DHT22;7225;59.282;18.344;2023-03-18T06:18:09;4.20;99.90
14283;DHT22;7225;59.282;18.344;2023-03-18T06:20:36;4.20;99.90
14283;DHT22;7225;59.282;18.344;2023-03-18T06:23:04;4.20;99.90
14283;DHT22;7225;59.282;18.344;2023-03-18T06:25:31;4.20;99.90
14283;DHT22;7225;59.282;18.344;2023-03-18T06:27:58;4.20;99.90
14283;DHT22;7225;59.282;18.344;2023-03-18T06:30:25;4.20;99.90
14283;DHT22;7225;59.282;18.344;2023-03-18T06:32:52;4.20;99.90
14283;DHT22;7225;59.282;18.344;2023-03-18T06:35:19;4.20;99.90
14283;DHT22;7225;59.282;18.344;2023-03-18T06:37:47;4.20;99.90
14283;DHT22;7225;59.282;18.344;2023-03-18T06:40:14;4.20;99.90
14283;DHT22;7225;59.282;18.344;2023-03-18T06:42:41;4.20;99.90
14283;DHT22;7225;59.282;18.344;2023-03-18T06:45:08;4.30;99.90
14283;DHT22;7225;59.282;18.344;2023-03-18T06:47:36;4.20;99.90
14283;DHT22;7225;59.282;18.344;2023-03-18T06:50:04;4.20;99.90
14283;DHT22;7225;59.282;18.344;2023-03-18T06:52:32;4.30;99.90
14283;DHT22;7225;59.282;18.344;2023-03-18T06:54:59;4.30;99.90
14283;DHT22;7225;59.282;18.344;2023-03-18T06:57:26;4.30;99.90
14283;DHT22;7225;59.282;18.344;2023-03-18T06:59:53;4.30;99.90
14283;DHT22;7225;59.282;18.344;2023-03-18T07:02:20;4.30;99.90
14283;DHT22;7225;59.282;18.344;2023-03-18T07:04:50;4.30;99.90
14283;DHT22;7225;59.282;18.344;2023-03-18T07:07:18;4.30;99.90
14283;DHT22;7225;59.282;18.344;2023-03-18T07:09:45;4.30;99.90
14283;DHT22;7225;59.282;18.344;2023-03-18T07:12:12;4.30;99.90
14283;DHT22;7225;59.282;18.344;2023-03-18T07:14:40;4.40;99.90
14283;DHT22;7225;59.282;18.344;2023-03-18T07:17:08;4.40;99.90
14283;DHT22;7225;59.282;18.344;2023-03-18T07:19:36;4.40;99.90
14283;DHT22;7225;59.282;18.344;2023-03-18T07:22:03;4.40;99.90
14283;DHT22;7225;59.282;18.344;2023-03-18T07:24:30;4.50;99.90
14283;DHT22;7225;59.282;18.344;2023-03-18T07:26:57;4.40;99.90
14283;DHT22;7225;59.282;18.344;2023-03-18T07:29:24;4.50;99.90
14283;DHT22;7225;59.282;18.344;2023-03-18T07:31:51;4.50;99.90
14283;DHT22;7225;59.282;18.344;2023-03-18T07:34:18;4.50;99.90
14283;DHT22;7225;59.282;18.344;2023-03-18T07:36:46;4.50;99.90
14283;DHT22;7225;59.282;18.344;2023-03-18T07:39:13;4.60;99.90
14283;DHT22;7225;59.282;18.344;2023-03-18T07:41:41;4.50;99.90
14283;DHT22;7225;59.282;18.344;2023-03-18T07:44:08;4.50;99.90
14283;DHT22;7225;59.282;18.344;2023-03-18T07:46:35;4.50;99.90
14283;DHT22;7225;59.282;18.344;2023-03-18T07:49:02;4.50;99.90
14283;DHT22;7225;59.282;18.344;2023-03-18T07:51:29;4.60;99.90
14283;DHT22;7225;59.282;18.344;2023-03-18T07:53:57;4.50;99.90
14283;DHT22;7225;59.282;18.344;2023-03-18T07:56:24;4.50;99.90
14283;DHT22;7225;59.282;18.344;2023-03-18T07:58:52;4.50;99.90
14283;DHT22;7225;59.282;18.344;2023-03-18T08:01:19;4.60;99.90
14283;DHT22;7225;59.282;18.344;2023-03-18T08:03:46;4.60;99.90
14283;DHT22;7225;59.282;18.344;2023-03-18T08:06:14;4.60;99.90
14283;DHT22;7225;59.282;18.344;2023-03-18T08:08:41;4.60;99.90
14283;DHT22;7225;59.282;18.344;2023-03-18T08:11:08;4.50;99.90
14283;DHT22;7225;59.282;18.344;2023-03-18T08:13:37;4.60;99.90
14283;DHT22;7225;59.282;18.344;2023-03-18T08:16:05;4.50;99.90
14283;DHT22;7225;59.282;18.344;2023-03-18T08:18:33;4.50;99.90
14283;DHT22;7225;59.282;18.344;2023-03-18T08:21:00;4.50;99.90
14283;DHT22;7225;59.282;18.344;2023-03-18T08:23:27;4.50;99.90
14283;DHT22;7225;59.282;18.344;2023-03-18T08:25:54;4.50;99.90
14283;DHT22;7225;59.282;18.344;2023-03-18T08:28:22;4.50;99.90
14283;DHT22;7225;59.282;18.344;2023-03-18T08:30:53;4.50;99.90
14283;DHT22;7225;59.282;18.344;2023-03-18T08:33:22;4.50;99.90
14283;DHT22;7225;59.282;18.344;2023-03-18T08:35:49;4.50;99.90
14283;DHT22;7225;59.282;18.344;2023-03-18T08:38:17;4.50;99.90
14283;DHT22;7225;59.282;18.344;2023-03-18T08:40:45;4.60;99.90
14283;DHT22;7225;59.282;18.344;2023-03-18T08:43:14;4.50;99.90
14283;DHT22;7225;59.282;18.344;2023-03-18T08:45:42;4.50;99.90
14283;DHT22;7225;59.282;18.344;2023-03-18T08:48:09;4.50;99.90
14283;DHT22;7225;59.282;18.344;2023-03-18T08:50:36;4.50;99.90
14283;DHT22;7225;59.282;18.344;2023-03-18T08:53:04;4.50;99.90
14283;DHT22;7225;59.282;18.344;2023-03-18T08:55:34;4.50;99.90
14283;DHT22;7225;59.282;18.344;2023-03-18T08:58:03;4.50;99.90
14283;DHT22;7225;59.282;18.344;2023-03-18T09:00:33;4.50;99.90
14283;DHT22;7225;59.282;18.344;2023-03-18T09:03:00;4.60;99.90
14283;DHT22;7225;59.282;18.344;2023-03-18T09:05:28;4.50;99.90
14283;DHT22;7225;59.282;18.344;2023-03-18T09:07:59;4.50;99.90
14283;DHT22;7225;59.282;18.344;2023-03-18T09:10:26;4.50;99.90
14283;DHT22;7225;59.282;18.344;2023-03-18T09:12:53;4.50;99.90
14283;DHT22;7225;59.282;18.344;2023-03-18T09:15:21;4.50;99.90
14283;DHT22;7225;59.282;18.344;2023-03-18T09:17:48;4.50;99.90
14283;DHT22;7225;59.282;18.344;2023-03-18T09:20:35;4.50;99.90
14283;DHT22;7225;59.282;18.344;2023-03-18T09:23:03;4.50;99.90
14283;DHT22;7225;59.282;18.344;2023-03-18T09:25:30;4.50;99.90
14283;DHT22;7225;59.282;18.344;2023-03-18T09:27:58;4.40;99.90
14283;DHT22;7225;59.282;18.344;2023-03-18T09:30:26;4.40;99.90
14283;DHT22;7225;59.282;18.344;2023-03-18T09:32:54;4.40;99.90
14283;DHT22;7225;59.282;18.344;2023-03-18T09:35:22;4.40;99.90
14283;DHT22;7225;59.282;18.344;2023-03-18T09:37:50;4.40;99.90
14283;DHT22;7225;59.282;18.344;2023-03-18T09:48:56;4.40;99.90
14283;DHT22;7225;59.282;18.344;2023-03-18T09:51:42;4.40;99.90
14283;DHT22;7225;59.282;18.344;2023-03-18T09:54:33;4.40;99.90
14283;DHT22;7225;59.282;18.344;2023-03-18T09:57:03;4.40;99.90
14283;DHT22;7225;59.282;18.344;2023-03-18T09:59:38;4.30;99.90
14283;DHT22;7225;59.282;18.344;2023-03-18T10:02:22;4.40;99.90
14283;DHT22;7225;59.282;18.344;2023-03-18T10:04:57;4.40;99.90
14283;DHT22;7225;59.282;18.344;2023-03-18T10:07:31;4.40;99.90
14283;DHT22;7225;59.282;18.344;2023-03-18T10:12:58;4.40;99.90
14283;DHT22;7225;59.282;18.344;2023-03-18T10:15:35;4.40;99.90
14283;DHT22;7225;59.282;18.344;2023-03-18T10:18:11;4.40;99.90
14283;DHT22;7225;59.282;18.344;2023-03-18T10:23:52;4.40;99.90
14283;DHT22;7225;59.282;18.344;2023-03-18T10:29:38;4.40;99.90
14283;DHT22;7225;59.282;18.344;2023-03-18T10:32:07;4.40;99.90
14283;DHT22;7225;59.282;18.344;2023-03-18T10:34:55;4.40;99.90
14283;DHT22;7225;59.282;18.344;2023-03-18T10:40:04;4.40;99.90
14283;DHT22;7225;59.282;18.344;2023-03-18T10:42:37;4.40;99.90
14283;DHT22;7225;59.282;18.344;2023-03-18T10:45:22;4.50;99.90
14283;DHT22;7225;59.282;18.344;2023-03-18T10:48:03;4.40;99.90
14283;DHT22;7225;59.282;18.344;2023-03-18T10:53:29;4.50;99.90
14283;DHT22;7225;59.282;18.344;2023-03-18T10:56:10;4.50;99.90
14283;DHT22;7225;59.282;18.344;2023-03-18T10:58:40;4.50;99.90
14283;DHT22;7225;59.282;18.344;2023-03-18T11:01:12;4.50;99.90
14283;DHT22;7225;59.282;18.344;2023-03-18T11:03:47;4.60;99.90
14283;DHT22;7225;59.282;18.344;2023-03-18T11:06:45;4.50;99.90
14283;DHT22;7225;59.282;18.344;2023-03-18T11:09:18;4.50;99.90
14283;DHT22;7225;59.282;18.344;2023-03-18T11:11:47;4.50;99.90
14283;DHT22;7225;59.282;18.344;2023-03-18T11:14:20;4.50;99.90
14283;DHT22;7225;59.282;18.344;2023-03-18T11:16:56;4.50;99.90
14283;DHT22;7225;59.282;18.344;2023-03-18T11:19:36;4.50;99.90
14283;DHT22;7225;59.282;18.344;2023-03-18T11:22:25;4.50;99.90
14283;DHT22;7225;59.282;18.344;2023-03-18T11:25:04;4.50;99.90
14283;DHT22;7225;59.282;18.344;2023-03-18T11:27:43;4.50;99.90
14283;DHT22;7225;59.282;18.344;2023-03-18T11:30:18;4.40;99.90
14283;DHT22;7225;59.282;18.344;2023-03-18T11:35:55;4.40;99.90
14283;DHT22;7225;59.282;18.344;2023-03-18T11:38:28;4.40;99.90
14283;DHT22;7225;59.282;18.344;2023-03-18T11:43:35;4.40;99.90
14283;DHT22;7225;59.282;18.344;2023-03-18T11:46:06;4.40;99.90
14283;DHT22;7225;59.282;18.344;2023-03-18T11:48:38;4.40;99.90
14283;DHT22;7225;59.282;18.344;2023-03-18T11:51:31;4.40;99.90
14283;DHT22;7225;59.282;18.344;2023-03-18T12:00:05;4.40;99.90
14283;DHT22;7225;59.282;18.344;2023-03-18T12:05:55;4.40;99.90
14283;DHT22;7225;59.282;18.344;2023-03-18T12:30:32;4.40;99.90
14283;DHT22;7225;59.282;18.344;2023-03-18T12:33:07;4.40;99.90
14283;DHT22;7225;59.282;18.344;2023-03-18T12:35:58;4.40;99.90
14283;DHT22;7225;59.282;18.344;2023-03-18T12:41:15;4.40;99.90
14283;DHT22;7225;59.282;18.344;2023-03-18T12:46:33;4.30;99.90
14283;DHT22;7225;59.282;18.344;2023-03-18T12:49:28;4.30;99.90
14283;DHT22;7225;59.282;18.344;2023-03-18T12:51:59;4.30;99.90
14283;DHT22;7225;59.282;18.344;2023-03-18T12:54:38;4.30;99.90
14283;DHT22;7225;59.282;18.344;2023-03-18T12:57:20;4.30;99.90
14283;DHT22;7225;59.282;18.344;2023-03-18T12:59:56;4.30;99.90
14283;DHT22;7225;59.282;18.344;2023-03-18T13:03:11;4.30;99.90
14283;DHT22;7225;59.282;18.344;2023-03-18T13:05:48;4.30;99.90
14283;DHT22;7225;59.282;18.344;2023-03-18T13:08:26;4.30;99.90
14283;DHT22;7225;59.282;18.344;2023-03-18T13:16:59;4.30;99.90
14283;DHT22;7225;59.282;18.344;2023-03-18T13:19:26;4.30;99.90
14283;DHT22;7225;59.282;18.344;2023-03-18T13:22:35;4.30;99.90
14283;DHT22;7225;59.282;18.344;2023-03-18T13:28:12;4.30;99.90
14283;DHT22;7225;59.282;18.344;2023-03-18T13:39:22;4.40;99.90
14283;DHT22;7225;59.282;18.344;2023-03-18T13:44:23;4.30;99.90
14283;DHT22;7225;59.282;18.344;2023-03-18T13:47:17;4.30;99.90
14283;DHT22;7225;59.282;18.344;2023-03-18T13:49:45;4.40;99.90
14283;DHT22;7225;59.282;18.344;2023-03-18T13:52:44;4.30;99.90
14283;DHT22;7225;59.282;18.344;2023-03-18T13:55:32;4.30;99.90
14283;DHT22;7225;59.282;18.344;2023-03-18T14:00:41;4.30;99.90
14283;DHT22;7225;59.282;18.344;2023-03-18T14:03:29;4.30;99.90
14283;DHT22;7225;59.282;18.344;2023-03-18T14:14:03;4.30;99.90
14283;DHT22;7225;59.282;18.344;2023-03-18T14:21:33;4.20;99.90
14283;DHT22;7225;59.282;18.344;2023-03-18T14:27:07;4.30;99.90
14283;DHT22;7225;59.282;18.344;2023-03-18T14:29:41;4.20;99.90
14283;DHT22;7225;59.282;18.344;2023-03-18T14:32:29;4.20;99.90
14283;DHT22;7225;59.282;18.344;2023-03-18T14:38:13;4.20;99.90
14283;DHT22;7225;59.282;18.344;2023-03-18T14:40:44;4.20;99.90
14283;DHT22;7225;59.282;18.344;2023-03-18T14:43:20;4.20;99.90
14283;DHT22;7225;59.282;18.344;2023-03-18T14:45:49;4.20;99.90
14283;DHT22;7225;59.282;18.344;2023-03-18T14:48:23;4.10;99.90
14283;DHT22;7225;59.282;18.344;2023-03-18T14:50:57;4.20;99.90
14283;DHT22;7225;59.282;18.344;2023-03-18T14:53:41;4.20;99.90
14283;DHT22;7225;59.282;18.344;2023-03-18T14:56:19;4.10;99.90
14283;DHT22;7225;59.282;18.344;2023-03-18T14:58:46;4.10;99.90
14283;DHT22;7225;59.282;18.344;2023-03-18T15:01:14;4.10;99.90
14283;DHT22;7225;59.282;18.344;2023-03-18T15:03:46;4.20;99.90
14283;DHT22;7225;59.282;18.344;2023-03-18T15:06:25;4.20;99.90
14283;DHT22;7225;59.282;18.344;2023-03-18T15:09:02;4.20;99.90
14283;DHT22;7225;59.282;18.344;2023-03-18T15:11:36;4.20;99.90
14283;DHT22;7225;59.282;18.344;2023-03-18T15:14:14;4.20;99.90
14283;DHT22;7225;59.282;18.344;2023-03-18T15:16:55;4.20;99.90
14283;DHT22;7225;59.282;18.344;2023-03-18T15:19:24;4.20;99.90
14283;DHT22;7225;59.282;18.344;2023-03-18T15:21:53;4.20;99.90
14283;DHT22;7225;59.282;18.344;2023-03-18T15:24:25;4.20;99.90
14283;DHT22;7225;59.282;18.344;2023-03-18T15:29:35;4.20;99.90
14283;DHT22;7225;59.282;18.344;2023-03-18T15:34:58;4.20;99.90
14283;DHT22;7225;59.282;18.344;2023-03-18T15:37:34;4.20;99.90
14283;DHT22;7225;59.282;18.344;2023-03-18T15:43:10;4.20;99.90
14283;DHT22;7225;59.282;18.344;2023-03-18T15:45:51;4.20;99.90
14283;DHT22;7225;59.282;18.344;2023-03-18T15:48:29;4.20;99.90
14283;DHT22;7225;59.282;18.344;2023-03-18T15:51:01;4.20;99.90
14283;DHT22;7225;59.282;18.344;2023-03-18T15:53:41;4.20;99.90
14283;DHT22;7225;59.282;18.344;2023-03-18T15:56:16;4.20;99.90
14283;DHT22;7225;59.282;18.344;2023-03-18T15:58:44;4.30;99.90
14283;DHT22;7225;59.282;18.344;2023-03-18T16:01:16;4.30;99.90
14283;DHT22;7225;59.282;18.344;2023-03-18T16:03:44;4.30;99.90
14283;DHT22;7225;59.282;18.344;2023-03-18T16:06:13;4.30;99.90
14283;DHT22;7225;59.282;18.344;2023-03-18T16:08:40;4.30;99.90
14283;DHT22;7225;59.282;18.344;2023-03-18T16:11:09;4.30;99.90
14283;DHT22;7225;59.282;18.344;2023-03-18T16:13:38;4.30;99.90
14283;DHT22;7225;59.282;18.344;2023-03-18T16:16:07;4.30;99.90
14283;DHT22;7225;59.282;18.344;2023-03-18T16:18:36;4.30;99.90
14283;DHT22;7225;59.282;18.344;2023-03-18T16:21:04;4.30;99.90
14283;DHT22;7225;59.282;18.344;2023-03-18T16:23:31;4.30;99.90
14283;DHT22;7225;59.282;18.344;2023-03-18T16:25:58;4.30;99.90
14283;DHT22;7225;59.282;18.344;2023-03-18T16:28:26;4.40;99.90
14283;DHT22;7225;59.282;18.344;2023-03-18T16:30:54;4.40;99.90
14283;DHT22;7225;59.282;18.344;2023-03-18T16:33:23;4.50;99.90
14283;DHT22;7225;59.282;18.344;2023-03-18T16:35:56;4.50;99.90
14283;DHT22;7225;59.282;18.344;2023-03-18T16:38:25;4.50;99.90
14283;DHT22;7225;59.282;18.344;2023-03-18T16:40:53;4.40;99.90
14283;DHT22;7225;59.282;18.344;2023-03-18T16:43:22;4.40;99.90
14283;DHT22;7225;59.282;18.344;2023-03-18T16:45:50;4.40;99.90
14283;DHT22;7225;59.282;18.344;2023-03-18T16:48:20;4.40;99.90
14283;DHT22;7225;59.282;18.344;2023-03-18T16:50:49;4.40;99.90
14283;DHT22;7225;59.282;18.344;2023-03-18T16:53:20;4.40;99.90
14283;DHT22;7225;59.282;18.344;2023-03-18T16:55:49;4.40;99.90
14283;DHT22;7225;59.282;18.344;2023-03-18T16:58:25;4.40;99.90
14283;DHT22;7225;59.282;18.344;2023-03-18T17:00:53;4.40;99.90
14283;DHT22;7225;59.282;18.344;2023-03-18T17:03:20;4.40;99.90
14283;DHT22;7225;59.282;18.344;2023-03-18T17:05:49;4.30;99.90
14283;DHT22;7225;59.282;18.344;2023-03-18T17:08:18;4.30;99.90
14283;DHT22;7225;59.282;18.344;2023-03-18T17:10:46;4.30;99.90
14283;DHT22;7225;59.282;18.344;2023-03-18T17:13:26;4.30;99.90
14283;DHT22;7225;59.282;18.344;2023-03-18T17:15:54;4.30;99.90
14283;DHT22;7225;59.282;18.344;2023-03-18T17:18:22;4.30;99.90
14283;DHT22;7225;59.282;18.344;2023-03-18T17:20:50;4.20;99.90
14283;DHT22;7225;59.282;18.344;2023-03-18T17:23:20;4.30;99.90
14283;DHT22;7225;59.282;18.344;2023-03-18T17:25:50;4.20;99.90
14283;DHT22;7225;59.282;18.344;2023-03-18T17:28:41;4.30;99.90
14283;DHT22;7225;59.282;18.344;2023-03-18T17:31:10;4.30;99.90
14283;DHT22;7225;59.282;18.344;2023-03-18T17:33:37;4.30;99.90
14283;DHT22;7225;59.282;18.344;2023-03-18T17:36:05;4.30;99.90
14283;DHT22;7225;59.282;18.344;2023-03-18T17:38:34;4.30;99.90
14283;DHT22;7225;59.282;18.344;2023-03-18T17:41:02;4.30;99.90
14283;DHT22;7225;59.282;18.344;2023-03-18T17:43:33;4.30;99.90
14283;DHT22;7225;59.282;18.344;2023-03-18T17:46:01;4.30;99.90
14283;DHT22;7225;59.282;18.344;2023-03-18T17:48:34;4.30;99.90
14283;DHT22;7225;59.282;18.344;2023-03-18T17:51:09;4.30;99.90
14283;DHT22;7225;59.282;18.344;2023-03-18T17:53:50;4.30;99.90
14283;DHT22;7225;59.282;18.344;2023-03-18T17:56:18;4.30;99.90
14283;DHT22;7225;59.282;18.344;2023-03-18T17:58:50;4.40;99.90
14283;DHT22;7225;59.282;18.344;2023-03-18T18:01:27;4.40;99.90
14283;DHT22;7225;59.282;18.344;2023-03-18T18:03:56;4.40;99.90
14283;DHT22;7225;59.282;18.344;2023-03-18T18:06:26;4.40;99.90
14283;DHT22;7225;59.282;18.344;2023-03-18T18:08:56;4.40;99.90
14283;DHT22;7225;59.282;18.344;2023-03-18T18:11:31;4.40;99.90
14283;DHT22;7225;59.282;18.344;2023-03-18T18:14:09;4.40;99.90